National Weather Service United States Department of Commerce

Moderating Temperatures for the East; Developing Storm for the Plains

Temperatures will continue to moderate across the east half of the nation through at least the first half of this week. A developing storm across the Southern Plains may bring some heavy rain from the Plains to the lower Great Lakes region, a wintry mixture and accumulating snow across the Midwest and Upper Mississippi Valley into mid-week. The west remains unsettled with occasional rain and snow. Read More >

VEL - Vernal, UT - Terminal Aerodrome Forecast (TAF)

FTUS45 KGJT 060040 AAA
TAFVEL
TAF AMD
KVEL 060040Z 0601/0624 VRB03KT 4SM -SHSN BR OVC030
      TEMPO 0601/0605 1SM -SHSN BR OVC020
     FM060500 VRB03KT P6SM VCSH BKN030=

For a printable version click KVEL TAF